HOURLY OBS INDEX

013

Northeast interior

BALGO HILLS ASA

Site: 013045
Alt: 421.1m
215km S of HALLS CREEK


  Time     Wind        Temp  DP   Baro     Rain since   Rain past  Vis(m), Cloud(base in m), Weather
  local        km/h                         9am  last   hr   10m    
Mon 18:00  ------/--- --------  1007.2   ----  ----  ----  ----   ----- 
Mon 18:00  ------/--- --------  1007.2   ----  ----  ----  ----   ----- 
Mon 18:30  ------/--- --------  1007.4   ----  ----  ----  ----   ----- 
Mon 19:00  ------/--- --------  1007.7   ----  ----  ----  ----   ----- 
Mon 19:30  ------/--- --------  1008.0   ----  ----  ----  ----   ----- 
Mon 20:00  ------/--- --------  1008.3   ----  ----  ----  ----   ----- 
Mon 20:30  ------/--- --------  1008.5   ----  ----  ----  ----   ----- 
Mon 21:00  ------/--- --------  1008.7   ----  ----  ----  ----   ----- 
Mon 21:30  ------/--- --------  1008.9   ----  ----  ----  ----   ----- 
Mon 22:00  ------/--- --------  1008.9   ----  ----  ----  ----   ----- 
Mon 22:30  ------/--- --------  1008.6   ----  ----  ----  ----   ----- 
Mon 23:00  ------/--- --------  1008.6   ----  ----  ----  ----   ----- 
Mon 23:00  ------/--- --------  1008.6   ----  ----  ----  ----   ----- 

GILES METEOROLOGICAL OFFICE

Site: 013017
Alt: 598.0m
709km NE of LAVERTON


  Time     Wind        Temp  DP   Baro     Rain since   Rain past  Vis(m), Cloud(base in m), Weather
  local        km/h                         9am  last   hr   10m    
Mon 18:00    N  7/  9  34.2  8.9  1010.9    1.2   0.0   0.0   0.0   10000 
Mon 18:00    N  7/  9  34.2  8.9  1010.9    1.2   0.0  ----   0.0   10000 
Mon 18:30    N  9/ 11  32.8  8.1  1011.0    1.2   0.0   0.0   0.0   10000 
Mon 19:00    N 13/ 15  31.9  8.2  1010.8    1.2   0.0   0.0   0.0   10000 
Mon 19:30    N 13/ 15  31.7  8.1  1011.1    1.2   0.0   0.0   0.0   10000 
Mon 20:00    N 15/ 17  31.1  7.9  1011.0    1.2   0.0   0.0   0.0   10000 
Mon 20:30    N 13/ 15  30.1  8.6  1011.2    1.2   0.0   0.0   0.0   10000 
Mon 21:00    N 15/ 19  30.8  8.2  1011.3    1.2   0.0   0.0   0.0   10000 
Mon 21:30  NNE 15/ 19  30.7  7.5  1011.3    1.2   0.0   0.0   0.0   10000 
Mon 22:00  NNE 13/ 15  29.4  8.3  1010.9    1.2   0.0   0.0   0.0   10000 
Mon 22:30  ENE 19/ 20  29.5  7.6  1010.7    1.2   0.0   0.0   0.0   10000 
Mon 23:00  ENE 17/ 20  29.5  7.6  1010.8    1.2   0.0   0.0   0.0   10000 
Mon 23:00  ENE 17/ 20  29.5  7.6  1010.8    1.2   0.0  ----   0.0   10000 

TELFER AERO

Site: 013030
Alt: 291.9m
315km NE of NEWMAN


  Time     Wind        Temp  DP   Baro     Rain since   Rain past  Vis(m), Cloud(base in m), Weather
  local        km/h                         9am  last   hr   10m    
Mon 18:00  ENE  6/  9  38.4 14.9  1005.4    0.0   0.0   0.0   0.0   10000 
Mon 18:00  ENE  6/  9  38.4 14.9  1005.4    0.0   0.0  ----   0.0   10000 
Mon 18:30    E  6/  7  37.0 18.5  1005.6    0.0   0.0   0.0   0.0   10000 
Mon 19:00   SE  6/  7  36.2 17.4  1006.0    0.0   0.0   0.0   0.0   10000 
Mon 19:30   SE  9/ 11  35.2 17.9  1006.0    0.0   0.0   0.0   0.0   10000 
Mon 20:00  SSE  9/ 11  35.0 17.2  1006.3    0.0   0.0   0.0   0.0   10000 
Mon 20:30  SSE 11/ 11  34.7 17.0  1006.6    0.0   0.0   0.0   0.0   10000 
Mon 21:00  SSE 11/ 13  34.5 16.8  1006.9    0.0   0.0   0.0   0.0   10000 
Mon 21:30  SSE  6/  7  33.9 16.7  1007.4    0.0   0.0   0.0   0.0   10000 
Mon 22:00   SW  7/ 11  34.3 16.2  1007.6    0.0   0.0   0.0   0.0   10000 
Mon 22:30  SSW  7/  9  34.5 15.9  1007.4    0.0   0.0   0.0   0.0   10000 
Mon 23:00    S  4/  7  34.1 15.5  1007.0    0.0   0.0   0.0   0.0   10000 
Mon 23:00    S  4/  7  34.1 15.5  1007.0    0.0   0.0  ----   0.0   10000 

WARBURTON AIRFIELD

Site: 013011
Alt: 459.0m
497km NE of LAVERTON


  Time     Wind        Temp  DP   Baro     Rain since   Rain past  Vis(m), Cloud(base in m), Weather
  local        km/h                         9am  last   hr   10m    
Mon 18:00  NNE 11/ 17  35.8 10.8  1008.8    0.0   0.0   0.0   0.0   ----- 
Mon 18:00  NNE 11/ 17  35.8 10.8  1008.8    0.0   0.0  ----   0.0   ----- 
Mon 18:30   NE  9/ 11  34.2 12.0  1008.8    0.0   0.0   0.0   0.0   ----- 
Mon 19:00   NE  9/ 11  32.7 12.9  1008.9    0.0   0.0   0.0   0.0   ----- 
Mon 19:30   NE  7/ 11  31.9 12.7  1009.0    0.0   0.0   0.0   0.0   ----- 
Mon 20:00   NE  7/  9  30.7 13.0  1009.2    0.0   0.0   0.0   0.0   ----- 
Mon 20:30    E  9/ 11  30.2 13.5  1009.4    0.0   0.0   0.0   0.0   ----- 
Mon 21:00    E  9/ 13  30.1 13.0  1009.5    0.0   0.0   0.0   0.0   ----- 
Mon 21:30    E 11/ 15  30.8 13.1  1009.4    0.0   0.0   0.0   0.0   ----- 
Mon 22:00    E 15/ 20  31.0 13.7  1009.8    0.0   0.0   0.0   0.0   ----- 
Mon 22:30  ESE 13/ 20  30.4 14.9  1010.1    0.0   0.0   0.0   0.0   ----- 
Mon 23:00  ESE 11/ 13  30.2 15.1  1010.1    0.0   0.0   0.0   0.0   ----- 
Mon 23:00  ESE 11/ 13  30.2 15.1  1010.1    0.0   0.0  ----   0.0   ----- 

WILUNA AERO

Site: 013044
Alt: 502.4m
km of


  Time     Wind        Temp  DP   Baro     Rain since   Rain past  Vis(m), Cloud(base in m), Weather
  local        km/h                         9am  last   hr   10m    
Mon 18:00  NNE  7/ 11  34.6 14.5  1005.9    0.0   0.0   0.0   0.0   10000 
Mon 18:00  NNE  7/ 11  34.6 14.5  1005.9    0.0   0.0  ----   0.0   10000 
Mon 18:30  NNE  9/ 13  33.8 14.8  1006.3    0.0   0.0   0.0   0.0   10000 
Mon 19:00  NNE  9/ 11  32.8 16.6  1006.6    0.0   0.0   0.0   0.0   10000 
Mon 19:30    N 20/ 26  32.7 14.3  1007.1    0.0   0.0   0.0   0.0   10000 
Mon 20:00    N 15/ 24  31.4 14.5  1007.8    0.0   0.0   0.0   0.0   10000 
Mon 20:30    N 17/ 24  30.7 13.9  1008.2    0.0   0.0   0.0   0.0   10000 
Mon 21:00  WNW 13/ 15  30.1 14.2  1008.5    0.0   0.0   0.0   0.0   10000 
Mon 21:30   NW 13/ 17  29.5 14.5  1008.7    0.0   0.0   0.0   0.0   10000 
Mon 22:00   NW  9/ 11  28.2 15.5  1008.9    0.0   0.0   0.0   0.0   10000 
Mon 22:30   NW  9/ 13  27.3 16.0  1008.7    0.0   0.0   0.0   0.0   10000 
Mon 23:00   NW 11/ 15  27.2 16.2  1008.5    0.0   0.0   0.0   0.0   10000 
Mon 23:00   NW 11/ 15  27.2 16.2  1008.5    0.0   0.0  ----   0.0   10000